ストックホルム・アーランダ空港の過去48時間の天気

ストックホルム・アーランダ空港 (Stockholm / Arlanda)

現在時刻: 2/6 21:16 CET (2/6 20:16 UTC) 以下の時間は現地時間です。

過去48時間のMETAR気象情報
時間 風向 風速(m/s) 視程 気温(℃) 湿度(%) 気圧(hPa) 天気現象
6 20:50 西南西 3 10km以上 -3 86 1034
6 20:20 西南西 4 10km以上 -3 93 1034
6 19:50 南西 4 10km以上 -3 86 1035
6 19:20 南西 3 10km以上 -3 86 1034
6 18:50 南西 3 10km以上 -4 93 1035
6 18:20 西南西 3 10km以上 -3 86 1035
6 17:50 南南西 3 10km以上 -3 86 1035
6 17:20 南南西 3 10km以上 -3 80 1035
6 16:50 南南西 3 10km以上 -2 80 1035
6 16:20 南南西 3 10km以上 -2 80 1035
6 15:50 南南西 3 10km以上 -1 74 1035
6 15:20 南西 4 10km以上 -1 74 1035
6 14:50 南西 3 10km以上 0 69 1035
6 14:20 西南西 2 10km以上 0 69 1035
6 13:50 南西 3 10km以上 0 69 1035
6 13:20 南西 3 10km以上 -1 74 1035
6 12:50 南南西 2 10km以上 -1 74 1035
6 12:20 西北西 2 10km以上 -2 80 1035
6 11:50 西北西 3 10km以上 -2 80 1036
6 11:20 南西 3 10km以上 -3 86 1035
6 10:50 南西 2 10km以上 -3 86 1035
6 10:20 南西 3 10km以上 -4 86 1036
6 09:50 南西 2 10km以上 -5 93 1035
6 09:20 南西 2 10km以上 -7 93 1035
6 08:50 西北西 2 10km以上 -7 86 1035
6 07:50 西北西 2 10km以上 -7 86 1035
6 07:20 西 3 10km以上 -6 86 1035
6 06:50 西北西 3 10km以上 -6 93 1035
6 06:20 西北西 3 10km以上 -6 93 1034
6 05:50 西 3 10km以上 -6 93 1034
6 05:20 西北西 3 10km以上 -5 86 1034
6 04:50 西 4 10km以上 -5 86 1034
6 04:20 西 3 10km以上 -5 86 1034
6 03:50 西 4 10km以上 -6 93 1034
6 03:20 西 3 10km以上 -6 93 1033
6 02:50 西 3 10km以上 -5 93 1033
6 02:20 西 4 10km以上 -4 86 1033
6 01:50 西 4 10km以上 -4 86 1033
6 01:20 西 4 10km以上 -5 93 1033
6 00:50 西 4 10km以上 -4 86 1033
6 00:20 西 4 10km以上 -4 93 1033
5 23:50 西 4 10km以上 -4 93 1033
5 23:20 西 4 10km以上 -3 86 1033
5 22:50 西 4 10km以上 -4 93 1032
5 22:20 西 3 10km以上 -4 93 1032
5 21:50 西 4 10km以上 -4 93 1032
5 21:20 西 4 10km以上 -4 100 1032
5 20:50 西 5 10km以上 -4 93 1032
5 20:20 西 4 10km以上 -3 93 1031
5 19:50 西 4 10km以上 -3 93 1031
5 19:20 西南西 3 10km以上 -3 93 1031
5 18:50 西南西 4 10km以上 -3 93 1031
5 18:20 西 4 10km以上 -3 93 1031
5 17:50 西南西 4 10km以上 -3 93 1030
5 17:20 西 5 10km以上 -3 93 1030
5 16:50 西南西 5 10km以上 -2 93 1030
5 16:20 西南西 5 10km以上 -2 93 1030
5 15:50 西南西 5 10km以上 -2 93 1030
5 15:20 西南西 5 10km以上 -2 93 1030
5 14:50 西南西 6 10km以上 -2 86 1030
5 14:20 西南西 7 10km以上 -2 93 1030
5 13:50 西南西 6 10km以上 -2 86 1030 弱い雪
5 13:20 西南西 7 3000m -3 93 1030 弱い雪
5 12:50 西南西 7 3000m -3 93 1030 弱い雪
5 12:20 西南西 7 1500m -3 93 1030
5 11:50 西南西 7 10km以上 -3 86 1030 周辺でしゅう雨
5 11:20 西南西 7 10km以上 -3 86 1030
5 10:50 南西 7 5000m -3 86 1030 弱い雪
5 10:20 南西 6 4000m -4 93 1030 弱い雪
5 09:50 西南西 6 2900m -4 86 1031 弱い雪
5 09:20 西南西 6 10km以上 -3 63 1031
5 08:50 南西 6 10km以上 -3 59 1031
5 08:20 南西 6 10km以上 -3 59 1031
5 07:50 南西 7 10km以上 -3 63 1031
5 07:20 南西 7 10km以上 -3 63 1031
5 06:50 南南西 7 10km以上 -3 63 1031
5 06:20 南南西 5 10km以上 -4 68 1031
5 05:50 南南西 5 10km以上 -4 74 1031
5 05:20 南南西 5 10km以上 -5 79 1031
5 04:50 南南西 4 10km以上 -6 86 1032
5 04:20 南南西 3 10km以上 -7 86 1032
5 03:50 南西 4 10km以上 -7 86 1032
5 03:20 4 10km以上 -8 86 1033
5 02:50 4 10km以上 -8 93 1033
5 02:20 南南西 4 10km以上 -8 93 1033
5 01:50 南南西 4 10km以上 -8 93 1034
5 01:20 南南西 5 10km以上 -9 85 1034
5 00:50 4 10km以上 -9 92 1035
5 00:20 南南西 3 10km以上 -10 92 1035
4 23:50 南南西 3 10km以上 -10 92 1035
4 23:20 南南西 3 10km以上 -9 85 1035
4 22:50 南南西 3 10km以上 -9 92 1036
4 22:20 南西 3 10km以上 -10 85 1036
4 21:50 南南西 3 10km以上 -10 92 1036
4 21:20 2 10km以上 -9 85 1037
ESSA 061950Z 24006KT CAVOK M03/M05 Q1034 NOSIG
ESSA 061920Z 24008KT CAVOK M03/M04 Q1034 NOSIG
ESSA 061850Z 23007KT CAVOK M03/M05 Q1035 NOSIG
ESSA 061820Z 22005KT CAVOK M03/M05 Q1034 NOSIG
ESSA 061750Z 23006KT CAVOK M04/M05 Q1035 NOSIG
ESSA 061720Z 24006KT CAVOK M03/M05 Q1035 NOSIG
ESSA 061650Z 20005KT CAVOK M03/M05 Q1035 NOSIG
ESSA 061620Z 21006KT CAVOK M03/M06 Q1035 NOSIG
ESSA 061550Z 21006KT CAVOK M02/M05 Q1035 NOSIG
ESSA 061520Z 20006KT CAVOK M02/M05 Q1035 NOSIG
ESSA 061450Z 21006KT CAVOK M01/M05 Q1035 NOSIG
ESSA 061420Z 23007KT CAVOK M01/M05 Q1035 NOSIG
ESSA 061350Z 22005KT CAVOK M00/M05 Q1035 NOSIG
ESSA 061320Z 24004KT CAVOK M00/M05 Q1035 NOSIG
ESSA 061250Z 23005KT CAVOK M00/M05 Q1035 NOSIG
ESSA 061220Z 22005KT CAVOK M01/M05 Q1035 NOSIG
ESSA 061150Z 21004KT CAVOK M01/M05 Q1035 NOSIG
ESSA 061120Z 29004KT 260V360 CAVOK M02/M05 Q1035 NOSIG
ESSA 061050Z 29005KT 270V330 CAVOK M02/M05 Q1036 NOSIG
ESSA 061020Z 23006KT CAVOK M03/M05 Q1035 NOSIG
ESSA 060950Z 22004KT CAVOK M03/M05 Q1035 NOSIG
ESSA 060920Z 22005KT CAVOK M04/M06 Q1036 NOSIG
ESSA 060850Z 23004KT 190V310 CAVOK M05/M06 Q1035 NOSIG
ESSA 060820Z 23003KT CAVOK M07/M08 Q1035 NOSIG
ESSA 060750Z 29004KT CAVOK M07/M09 Q1035 NOSIG
ESSA 060650Z 29004KT CAVOK M07/M09 Q1035 NOSIG
ESSA 060620Z 28005KT CAVOK M06/M08 Q1035 NOSIG
ESSA 060550Z 29005KT CAVOK M06/M07 Q1035 NOSIG
ESSA 060520Z 29006KT CAVOK M06/M07 Q1034 NOSIG
ESSA 060450Z 28006KT CAVOK M06/M07 Q1034 NOSIG
ESSA 060420Z 29005KT CAVOK M05/M07 Q1034 NOSIG
ESSA 060350Z 28007KT CAVOK M05/M07 Q1034 NOSIG
ESSA 060320Z 28006KT CAVOK M05/M07 Q1034 NOSIG
ESSA 060250Z 27008KT CAVOK M06/M07 Q1034 NOSIG
ESSA 060220Z 27006KT CAVOK M06/M07 Q1033 NOSIG
ESSA 060150Z 28005KT CAVOK M05/M06 Q1033 NOSIG
ESSA 060120Z 27007KT CAVOK M04/M06 Q1033 NOSIG
ESSA 060050Z 27008KT CAVOK M04/M06 Q1033 NOSIG
ESSA 060020Z 27007KT CAVOK M05/M06 Q1033 NOSIG
ESSA 052350Z 26008KT CAVOK M04/M06 Q1033 NOSIG
ESSA 052320Z 27008KT CAVOK M04/M05 Q1033 NOSIG
ESSA 052250Z 26008KT CAVOK M04/M05 Q1033 NOSIG
ESSA 052220Z 27008KT CAVOK M03/M05 Q1033 NOSIG
ESSA 052150Z 26007KT CAVOK M04/M05 Q1032 NOSIG
ESSA 052120Z 27006KT CAVOK M04/M05 Q1032 NOSIG
ESSA 052050Z 26008KT CAVOK M04/M05 Q1032 NOSIG
ESSA 052020Z 27008KT CAVOK M04/M04 Q1032 NOSIG
ESSA 051950Z 27009KT CAVOK M04/M05 Q1032 NOSIG
ESSA 051920Z 27008KT CAVOK M03/M04 Q1031 NOSIG
ESSA 051850Z 27008KT CAVOK M03/M04 Q1031 NOSIG
ESSA 051820Z 25006KT CAVOK M03/M04 Q1031 NOSIG
ESSA 051750Z 25007KT CAVOK M03/M04 Q1031 NOSIG
ESSA 051720Z 26007KT CAVOK M03/M04 Q1031 NOSIG
ESSA 051650Z 25008KT CAVOK M03/M04 Q1030 NOSIG
ESSA 051620Z 26009KT CAVOK M03/M04 Q1030 NOSIG
ESSA 051550Z 25010KT CAVOK M02/M03 Q1030 NOSIG
ESSA 051520Z 25010KT CAVOK M02/M03 Q1030 NOSIG
ESSA 051450Z 25010KT CAVOK M02/M03 Q1030 NOSIG
ESSA 051420Z 24010KT 9999 FEW008 SCT030 M02/M03 Q1030 NOSIG
ESSA 051350Z 25011KT 9999 SCT010 M02/M04 Q1030 TEMPO 2000 SN VV009
ESSA 051320Z 24013KT 9999 BKN008 M02/M03 Q1030 TEMPO 2000 SN VV009
ESSA 051250Z 24012KT 9999 -SN BKN008 M02/M04 Q1030 TEMPO 2000 SN VV009
ESSA 051220Z 25013KT 3000 -SN VV010 M03/M04 Q1030 TEMPO 2000 SN VV009
ESSA 051150Z 25013KT 3000 -SN VV010 M03/M04 Q1030 TEMPO 2000 SN VV009
ESSA 051120Z 24013KT 1500 SN VV010 M03/M04 Q1030 TEMPO 2000 SN VV010
ESSA 051050Z 24013KT 9999 VCSH BKN010 M03/M05 Q1030 TEMPO 2000 SN VV010
ESSA 051020Z 24013KT 9999 BKN010 OVC030 M03/M05 Q1030 TEMPO 2000 SN VV010
ESSA 050950Z 22014KT 5000 -SN FEW010 BKN020 M03/M05 Q1030 TEMPO 2000 SN VV010
ESSA 050920Z 22012KT 4000 -SN BKN024 M04/M05 Q1030 TEMPO 2000 SN VV010
ESSA 050850Z 24012KT 2900 -SN VV015 M04/M06 Q1031 TEMPO 2000 SN VV010
ESSA 050820Z 25012KT 9999 SCT022 OVC040 M03/M09 Q1031 TEMPO 2000 SN VV010
ESSA 050750Z 23011KT 9999 BKN044 M03/M10 Q1031 TEMPO 2000 SN VV010
ESSA 050720Z 22012KT CAVOK M03/M10 Q1031 NOSIG
ESSA 050650Z 22013KT CAVOK M03/M09 Q1031 NOSIG
ESSA 050620Z 22014KT CAVOK M03/M09 Q1031 NOSIG
ESSA 050550Z 21013KT CAVOK M03/M09 Q1031 NOSIG
ESSA 050520Z 21010KT CAVOK M04/M09 Q1031 NOSIG
ESSA 050450Z 21010KT CAVOK M04/M08 Q1031 NOSIG
ESSA 050420Z 21009KT CAVOK M05/M08 Q1031 NOSIG
ESSA 050350Z 21008KT CAVOK M06/M08 Q1032 NOSIG
ESSA 050320Z 20006KT CAVOK M07/M09 Q1032 NOSIG
ESSA 050250Z 22007KT CAVOK M07/M09 Q1032 NOSIG
ESSA 050220Z 18008KT CAVOK M08/M10 Q1033 NOSIG
ESSA 050150Z 17008KT CAVOK M08/M09 Q1033 NOSIG
ESSA 050120Z 21007KT CAVOK M08/M09 Q1033 NOSIG
ESSA 050050Z 21008KT CAVOK M08/M09 Q1034 NOSIG
ESSA 050020Z 21009KT CAVOK M09/M11 Q1034 NOSIG
ESSA 042350Z 19007KT CAVOK M09/M10 Q1035 NOSIG
ESSA 042320Z 20005KT CAVOK M10/M11 Q1035 NOSIG
ESSA 042250Z 20005KT CAVOK M10/M11 Q1035 NOSIG
ESSA 042220Z 20005KT CAVOK M09/M11 Q1035 NOSIG
ESSA 042150Z 21005KT CAVOK M09/M10 Q1036 NOSIG
ESSA 042120Z 22006KT CAVOK M10/M12 Q1036 NOSIG
ESSA 042050Z 21005KT CAVOK M10/M11 Q1036 NOSIG
ESSA 042020Z 19004KT CAVOK M09/M11 Q1037 NOSIG